createdAt,value
2019-01-21T00:01:54.000Z,1014.554
2019-01-21T00:11:54.000Z,1014.583
2019-01-21T00:21:54.000Z,1014.635
2019-01-21T00:31:54.000Z,1014.676
2019-01-21T00:41:54.000Z,1014.763
2019-01-21T00:51:54.000Z,1014.702
2019-01-21T01:01:55.000Z,1014.68
2019-01-21T01:11:54.000Z,1014.745
2019-01-21T01:21:58.000Z,1014.777
2019-01-21T01:31:55.000Z,1014.844
2019-01-21T01:41:55.000Z,1014.918
2019-01-21T01:51:55.000Z,1015.008
2019-01-21T02:01:55.000Z,1015.033
2019-01-21T02:11:55.000Z,1015.008
2019-01-21T02:21:55.000Z,1015.042
2019-01-21T02:31:57.000Z,1014.964
2019-01-21T02:41:55.000Z,1014.863
2019-01-21T02:51:55.000Z,1014.83
2019-01-21T03:01:55.000Z,1014.83
2019-01-21T03:11:55.000Z,1014.76
2019-01-21T03:21:55.000Z,1014.772
2019-01-21T03:31:55.000Z,1014.755
2019-01-21T03:41:55.000Z,1014.739
2019-01-21T03:51:55.000Z,1014.691
2019-01-21T04:01:55.000Z,1014.657
2019-01-21T04:11:55.000Z,1014.748
2019-01-21T04:21:55.000Z,1014.709
2019-01-21T04:31:55.000Z,1014.633
2019-01-21T04:41:55.000Z,1014.483
2019-01-21T04:51:55.000Z,1014.39
2019-01-21T05:01:55.000Z,1014.337
2019-01-21T05:11:55.000Z,1014.437
2019-01-21T05:21:55.000Z,1014.433
2019-01-21T05:31:55.000Z,1014.409
2019-01-21T05:41:55.000Z,1014.531
2019-01-21T05:51:55.000Z,1014.473
2019-01-21T06:01:55.000Z,1014.551
2019-01-21T06:11:55.000Z,1014.622
2019-01-21T06:21:55.000Z,1014.695
2019-01-21T06:31:55.000Z,1014.721
2019-01-21T06:41:55.000Z,1014.726
2019-01-21T06:51:55.000Z,1014.756
2019-01-21T07:01:55.000Z,1014.928
2019-01-21T07:11:55.000Z,1014.926
2019-01-21T07:21:55.000Z,1014.947
2019-01-21T07:31:55.000Z,1015.177
2019-01-21T07:41:55.000Z,1015.163
2019-01-21T07:51:55.000Z,1015.077
2019-01-21T08:01:55.000Z,1015.284
2019-01-21T08:11:55.000Z,1015.431
2019-01-21T08:21:55.000Z,1015.411
2019-01-21T08:31:55.000Z,1015.35
2019-01-21T08:41:55.000Z,1015.263
2019-01-21T09:01:57.000Z,1015.501
2019-01-21T09:11:55.000Z,1015.406
2019-01-21T09:21:55.000Z,1015.273
2019-01-21T09:31:56.000Z,1015.211
2019-01-21T09:41:56.000Z,1015.244
2019-01-21T09:51:56.000Z,1015.277
2019-01-21T10:01:56.000Z,1015.153
2019-01-21T10:11:56.000Z,1015.095
2019-01-21T10:21:56.000Z,1015.122
2019-01-21T10:31:56.000Z,1015.046
2019-01-21T10:41:56.000Z,1014.927
2019-01-21T10:51:56.000Z,1014.768
2019-01-21T11:01:56.000Z,1014.764
2019-01-21T11:11:56.000Z,1014.676
2019-01-21T11:21:56.000Z,1014.645
2019-01-21T11:31:56.000Z,1014.455
2019-01-21T11:41:56.000Z,1014.312
2019-01-21T11:51:56.000Z,1014.227
2019-01-21T12:01:56.000Z,1014.13
2019-01-21T12:11:56.000Z,1014.059
2019-01-21T12:21:56.000Z,1013.933
2019-01-21T12:31:56.000Z,1013.819
2019-01-21T12:41:56.000Z,1013.739
2019-01-21T12:51:56.000Z,1013.654
2019-01-21T13:01:56.000Z,1013.643
2019-01-21T13:11:57.000Z,1013.58
2019-01-21T13:21:56.000Z,1013.297
2019-01-21T13:31:56.000Z,1013.174
2019-01-21T13:41:56.000Z,1013.124
2019-01-21T13:51:56.000Z,1013.057
2019-01-21T14:01:56.000Z,1012.97
2019-01-21T14:11:56.000Z,1012.788
2019-01-21T14:21:56.000Z,1012.765
2019-01-21T14:31:56.000Z,1012.608
2019-01-21T14:41:56.000Z,1012.539
2019-01-21T14:51:56.000Z,1012.411
2019-01-21T15:11:56.000Z,1012.245
2019-01-21T15:21:56.000Z,1012.358
2019-01-21T15:31:56.000Z,1012.373
2019-01-21T15:41:56.000Z,1012.28
2019-01-21T15:51:56.000Z,1012.287
2019-01-21T16:01:56.000Z,1012.233
2019-01-21T16:11:56.000Z,1012.238
2019-01-21T16:21:56.000Z,1012.181
2019-01-21T16:31:56.000Z,1012.16
2019-01-21T16:41:56.000Z,1012.092
2019-01-21T16:51:56.000Z,1012.041
2019-01-21T17:01:56.000Z,1011.94
2019-01-21T17:11:58.000Z,1011.855
2019-01-21T17:21:57.000Z,1011.794
2019-01-21T17:41:57.000Z,1011.575
2019-01-21T17:51:57.000Z,1011.549
2019-01-21T18:01:57.000Z,1011.484
2019-01-21T18:11:57.000Z,1011.446
2019-01-21T18:21:57.000Z,1011.417
2019-01-21T18:31:57.000Z,1011.424
2019-01-21T18:41:57.000Z,1011.294
2019-01-21T18:51:57.000Z,1011.217
2019-01-21T19:01:57.000Z,1011.136
2019-01-21T19:11:57.000Z,1011.051
2019-01-21T19:21:57.000Z,1011.049
2019-01-21T19:31:57.000Z,1010.979
2019-01-21T19:41:57.000Z,1010.917
2019-01-21T19:51:57.000Z,1010.963
2019-01-21T20:01:57.000Z,1011.039
2019-01-21T20:11:57.000Z,1011.013
2019-01-21T20:21:57.000Z,1011.006
2019-01-21T20:31:57.000Z,1010.96
2019-01-21T20:41:57.000Z,1010.892
2019-01-21T20:51:57.000Z,1010.834
2019-01-21T21:01:57.000Z,1010.702
2019-01-21T21:11:58.000Z,1010.568
2019-01-21T21:21:57.000Z,1010.477
2019-01-21T21:31:57.000Z,1010.448
2019-01-21T21:41:57.000Z,1010.404
2019-01-21T21:51:57.000Z,1010.333
2019-01-21T22:01:58.000Z,1010.24
2019-01-21T22:11:57.000Z,1010.055
2019-01-21T22:21:57.000Z,1009.947
2019-01-21T22:31:57.000Z,1009.865
2019-01-21T22:41:57.000Z,1009.877
2019-01-21T22:51:57.000Z,1009.759
2019-01-21T23:01:57.000Z,1009.6
2019-01-21T23:11:57.000Z,1009.543
2019-01-21T23:21:57.000Z,1009.51
2019-01-21T23:31:57.000Z,1009.372
2019-01-21T23:41:57.000Z,1009.298
2019-01-21T23:51:59.000Z,1009.09
